Saturday, November 18, 2017, 1:30 AM EST
Back to Local

KCBE, Cumberland, Greater Cumberland Regional Airport

Location: Wiley Ford, MD, United States Lat: 39.615
Local Time: 1:30 AM EST ( 6:30 GMT) Lon: -78.761
Time Zone: US/Eastern Elev: 774 ft

Show me the last for .
Show Decoded

2017-11-18 01:06 METAR KCBE 180606Z AUTO 00000KT 10SM CLR 00/M01 A3003 RMK AO1 =
2017-11-18 00:46 METAR KCBE 180546Z AUTO 00000KT 10SM CLR 00/00 A3005 RMK AO1 =
2017-11-18 00:26 METAR KCBE 180526Z AUTO 00000KT 10SM CLR 00/M01 A3005 RMK AO1 =
2017-11-18 00:06 METAR KCBE 180506Z AUTO 00000KT 10SM CLR 00/M01 A3007 RMK AO1 =
2017-11-17 23:46 METAR KCBE 180446Z AUTO 00000KT 10SM CLR 00/M01 A3007 RMK AO1 =
2017-11-17 23:26 METAR KCBE 180426Z AUTO 00000KT 10SM CLR 00/M01 A3007 RMK AO1 =
2017-11-17 23:06 METAR KCBE 180406Z AUTO 00000KT 10SM CLR 01/M01 A3009 RMK AO1 =
2017-11-17 22:46 METAR KCBE 180346Z AUTO 00000KT 10SM CLR 01/M01 A3010 RMK AO1 =
2017-11-17 22:26 METAR KCBE 180326Z AUTO 00000KT 10SM CLR 01/M01 A3010 RMK AO1 =
2017-11-17 22:06 METAR KCBE 180306Z AUTO 00000KT 10SM CLR 02/M01 A3010 RMK AO1 =
2017-11-17 21:46 METAR KCBE 180246Z AUTO 00000KT 10SM CLR 02/00 A3010 RMK AO1 =
2017-11-17 21:26 METAR KCBE 180226Z AUTO 00000KT 10SM CLR 02/M01 A3010 RMK AO1 =
2017-11-17 21:06 METAR KCBE 180206Z AUTO 01003KT 10SM CLR 03/M01 A3011 RMK AO1 =
2017-11-17 20:46 METAR KCBE 180146Z AUTO 00000KT 10SM CLR 03/00 A3011 RMK AO1 =
2017-11-17 20:26 METAR KCBE 180126Z AUTO 00000KT 10SM CLR 03/M01 A3011 RMK AO1 =
2017-11-17 20:06 METAR KCBE 180106Z AUTO 00000KT 7SM CLR 03/M01 A3011 RMK AO1 =
2017-11-17 19:46 METAR KCBE 180046Z AUTO 00000KT 10SM CLR 04/M01 A3012 RMK AO1 =
2017-11-17 19:26 METAR KCBE 180026Z AUTO 00000KT 10SM CLR 05/M01 A3012 RMK AO1 =
2017-11-17 19:06 METAR KCBE 180006Z AUTO 00000KT 10SM CLR 05/M01 A3013 RMK AO1 =
2017-11-17 18:46 METAR KCBE 172346Z AUTO 00000KT 10SM CLR 06/M01 A3014 RMK AO1 =
2017-11-17 18:26 METAR KCBE 172326Z AUTO 31004KT 10SM CLR 06/M02 A3015 RMK AO1 =
2017-11-17 18:06 METAR KCBE 172306Z AUTO 35003KT 10SM CLR 07/M02 A3015 RMK AO1 =
2017-11-17 17:46 METAR KCBE 172246Z AUTO 00000KT 10SM CLR 07/M02 A3016 RMK AO1 =
2017-11-17 17:26 METAR KCBE 172226Z AUTO 00000KT 10SM CLR 08/M02 A3016 RMK AO1 =
2017-11-17 17:06 METAR KCBE 172206Z AUTO 17003KT 10SM CLR 08/M02 A3016 RMK AO1 =
2017-11-17 16:46 METAR KCBE 172146Z AUTO 19004KT 10SM CLR 09/M02 A3017 RMK AO1 =
2017-11-17 16:26 METAR KCBE 172126Z AUTO 19003KT 10SM CLR 10/M02 A3018 RMK AO1 =
2017-11-17 16:06 METAR KCBE 172106Z AUTO 17003KT 10SM CLR 10/M02 A3017 RMK AO1 =
2017-11-17 15:46 METAR KCBE 172046Z AUTO 00000KT 10SM CLR 10/M03 A3018 RMK AO1 =
2017-11-17 15:26 METAR KCBE 172026Z AUTO 00000KT 10SM CLR 10/M03 A3018 RMK AO1 =
2017-11-17 15:06 METAR KCBE 172006Z AUTO 16003KT 10SM CLR 12/M03 A3018 RMK AO1 =
2017-11-17 14:46 METAR KCBE 171946Z AUTO 00000KT 10SM CLR 12/M03 A3017 RMK AO1 =
2017-11-17 14:26 METAR KCBE 171926Z AUTO 00000KT 10SM CLR 11/M03 A3018 RMK AO1 =
2017-11-17 14:06 METAR KCBE 171906Z AUTO 00000KT 10SM CLR 11/M03 A3019 RMK AO1 =
2017-11-17 13:46 METAR KCBE 171846Z AUTO 36004KT 10SM CLR 11/M02 A3020 RMK AO1 =
2017-11-17 13:26 METAR KCBE 171826Z AUTO 04004KT 10SM CLR 10/M03 A3021 RMK AO1 =
2017-11-17 13:06 METAR KCBE 171806Z AUTO 02004KT 10SM CLR 10/M03 A3022 RMK AO1 =
2017-11-17 12:46 METAR KCBE 171746Z AUTO 36003KT 10SM CLR 10/M03 A3022 RMK AO1 =
2017-11-17 12:26 METAR KCBE 171726Z AUTO 00000KT 10SM CLR 10/M02 A3023 RMK AO1 =
2017-11-17 12:06 METAR KCBE 171706Z AUTO 00000KT 10SM CLR 10/M03 A3024 RMK AO1 =
2017-11-17 11:46 METAR KCBE 171646Z AUTO 36004KT 10SM CLR 09/M02 A3025 RMK AO1 =
2017-11-17 11:26 METAR KCBE 171626Z AUTO 33005KT 10SM CLR 09/M02 A3027 RMK AO1 =
2017-11-17 11:06 METAR KCBE 171606Z AUTO 33007KT 311V011 10SM CLR 08/M02 A3028 RMK AO1 =
2017-11-17 10:46 METAR KCBE 171546Z AUTO 00000KT 10SM CLR 08/M02 A3029 RMK AO1 =
2017-11-17 10:26 METAR KCBE 171526Z AUTO 29003KT 10SM CLR 08/M02 A3029 RMK AO1 =
2017-11-17 10:06 METAR KCBE 171506Z AUTO 34009KT 10SM CLR 07/M02 A3030 RMK AO1 =
2017-11-17 09:46 METAR KCBE 171446Z AUTO 33007KT 10SM CLR 07/M02 A3030 RMK AO1 =
2017-11-17 09:26 METAR KCBE 171426Z AUTO 34007KT 10SM CLR 06/M02 A3029 RMK AO1 =
2017-11-17 09:06 METAR KCBE 171406Z AUTO 30005KT 10SM CLR 06/M02 A3029 RMK AO1 =
2017-11-17 08:46 METAR KCBE 171346Z AUTO 31005KT 10SM SCT036 06/M02 A3028 RMK AO1 =
2017-11-17 08:26 METAR KCBE 171326Z AUTO 33003KT 10SM SCT036 05/M02 A3028 RMK AO1 =
2017-11-17 08:06 METAR KCBE 171306Z AUTO 00000KT 10SM CLR 05/M02 A3027 RMK AO1 =
2017-11-17 07:46 METAR KCBE 171246Z AUTO 31005KT 10SM CLR 05/M02 A3027 RMK AO1 =
2017-11-17 07:26 METAR KCBE 171226Z AUTO 30005KT 10SM SCT035 04/M02 A3027 RMK AO1 =
2017-11-17 07:06 METAR KCBE 171206Z AUTO 30004KT 10SM CLR 04/M02 A3026 RMK AO1 =
2017-11-17 06:46 METAR KCBE 171146Z AUTO 30006KT 10SM CLR 04/M02 A3025 RMK AO1 =
2017-11-17 06:26 METAR KCBE 171126Z AUTO 31006KT 10SM CLR 04/M02 A3024 RMK AO1 =
2017-11-17 06:06 METAR KCBE 171106Z AUTO 33005KT 10SM SCT036 04/M02 A3024 RMK AO1 =
2017-11-17 05:46 METAR KCBE 171046Z AUTO 31008KT 10SM SCT036 04/M02 A3023 RMK AO1 =
2017-11-17 05:26 METAR KCBE 171026Z AUTO 33008G16KT 10SM BKN036 05/M02 A3023 RMK AO1 =
2017-11-17 05:06 METAR KCBE 171006Z AUTO 00000KT 10SM BKN036 05/M02 A3022 RMK AO1 =
2017-11-17 04:46 METAR KCBE 170946Z AUTO 31004KT 10SM SCT036 05/M02 A3022 RMK AO1 =
2017-11-17 04:26 METAR KCBE 170926Z AUTO 31009KT 301V011 10SM CLR 05/M02 A3021 RMK AO1 =
2017-11-17 04:06 METAR KCBE 170906Z AUTO 33009G14KT 10SM CLR 05/M02 A3020 RMK AO1 =
2017-11-17 03:46 METAR KCBE 170846Z AUTO 31007G16KT 10SM SCT036 05/M02 A3020 RMK AO1 =
2017-11-17 03:26 METAR KCBE 170826Z AUTO 30008KT 10SM BKN036 05/M02 A3020 RMK AO1 =
2017-11-17 03:06 METAR KCBE 170806Z AUTO 33006KT 10SM OVC036 05/M02 A3021 RMK AO1 =
2017-11-17 02:46 METAR KCBE 170746Z AUTO 33005KT 10SM OVC038 05/M02 A3020 RMK AO1 =
2017-11-17 02:26 METAR KCBE 170726Z AUTO 34008KT 301V021 10SM OVC038 05/M02 A3020 RMK AO1 =
2017-11-17 02:06 METAR KCBE 170706Z AUTO 33006KT 291V001 10SM BKN038 06/M02 A3020 RMK AO1 =
2017-11-17 01:46 METAR KCBE 170646Z AUTO 31011G15KT 271V351 10SM BKN038 06/M02 A3019 RMK AO1 =

Support USWX by starting your Amazon purchase here.